createdAt,value
2018-12-20T00:00:43.444Z,1010.96
2018-12-20T00:01:43.435Z,1010.93
2018-12-20T00:02:43.548Z,1010.95
2018-12-20T00:03:43.561Z,1010.95
2018-12-20T00:04:44.222Z,1010.97
2018-12-20T00:05:43.427Z,1010.94
2018-12-20T00:06:43.414Z,1010.97
2018-12-20T00:07:43.495Z,1010.96
2018-12-20T00:08:43.428Z,1010.91
2018-12-20T00:09:43.382Z,1010.89
2018-12-20T00:10:43.348Z,1010.91
2018-12-20T00:11:43.544Z,1010.85
2018-12-20T00:12:43.334Z,1010.93
2018-12-20T00:13:43.332Z,1010.87
2018-12-20T00:14:43.314Z,1010.86
2018-12-20T00:15:43.426Z,1010.86
2018-12-20T00:16:43.295Z,1010.85
2018-12-20T00:17:43.326Z,1010.82
2018-12-20T00:18:43.276Z,1010.85
2018-12-20T00:19:43.268Z,1010.85
2018-12-20T00:20:43.410Z,1010.83
2018-12-20T00:21:43.382Z,1010.81
2018-12-20T00:22:43.450Z,1010.84
2018-12-20T00:23:43.296Z,1010.83
2018-12-20T00:24:43.286Z,1010.84
2018-12-20T00:25:43.440Z,1010.86
2018-12-20T00:26:43.204Z,1010.87
2018-12-20T00:27:43.196Z,1010.88
2018-12-20T00:28:43.191Z,1010.86
2018-12-20T00:29:43.180Z,1010.88
2018-12-20T00:30:43.223Z,1010.91
2018-12-20T00:31:43.260Z,1010.89
2018-12-20T00:32:43.150Z,1010.92
2018-12-20T00:33:43.312Z,1010.93
2018-12-20T00:34:43.344Z,1010.93
2018-12-20T00:35:43.176Z,1010.91
2018-12-20T00:36:43.112Z,1010.91
2018-12-20T00:37:43.187Z,1010.96
2018-12-20T00:38:43.155Z,1010.96
2018-12-20T00:39:43.086Z,1010.97
2018-12-20T00:40:43.083Z,1010.98
2018-12-20T00:41:43.245Z,1010.97
2018-12-20T00:42:43.189Z,1010.99
2018-12-20T00:43:43.146Z,1011.03
2018-12-20T00:44:43.102Z,1011.06
2018-12-20T00:45:43.064Z,1011.04
2018-12-20T00:46:43.021Z,1011.04
2018-12-20T00:47:43.018Z,1011.06
2018-12-20T00:48:43.002Z,1011.09
2018-12-20T00:49:42.992Z,1011.09
2018-12-20T00:50:42.984Z,1011.11
2018-12-20T00:51:43.084Z,1011.11
2018-12-20T00:52:43.075Z,1011.10
2018-12-20T00:53:43.023Z,1011.14
2018-12-20T00:54:42.948Z,1011.14
2018-12-20T00:55:42.954Z,1011.16
2018-12-20T00:56:43.005Z,1011.16
2018-12-20T00:57:42.921Z,1011.15
2018-12-20T00:58:43.135Z,1011.16
2018-12-20T00:59:42.903Z,1011.16
2018-12-20T01:00:42.900Z,1011.18
2018-12-20T01:01:42.933Z,1011.19
2018-12-20T01:02:42.958Z,1011.20
2018-12-20T01:03:42.914Z,1011.16
2018-12-20T01:04:42.872Z,1011.19
2018-12-20T01:05:42.848Z,1011.16
2018-12-20T01:06:42.842Z,1011.16
2018-12-20T01:07:42.831Z,1011.16
2018-12-20T01:08:42.894Z,1011.15
2018-12-20T01:09:42.814Z,1011.19
2018-12-20T01:10:42.802Z,1011.21
2018-12-20T01:11:42.940Z,1011.21
2018-12-20T01:12:42.849Z,1011.19
2018-12-20T01:13:42.939Z,1011.20
2018-12-20T01:14:45.447Z,1011.22
2018-12-20T01:15:42.782Z,1011.20
2018-12-20T01:16:42.748Z,1011.21
2018-12-20T01:17:42.749Z,1011.22
2018-12-20T01:18:42.870Z,1011.19
2018-12-20T01:19:42.857Z,1011.23
2018-12-20T01:20:42.709Z,1011.25
2018-12-20T01:21:42.775Z,1011.23
2018-12-20T01:22:42.697Z,1011.21
2018-12-20T01:23:42.684Z,1011.23
2018-12-20T01:24:42.744Z,1011.25
2018-12-20T01:25:42.693Z,1011.22
2018-12-20T01:26:42.661Z,1011.25
2018-12-20T01:27:42.649Z,1011.19
2018-12-20T01:28:42.649Z,1011.21
2018-12-20T01:29:42.735Z,1011.20
2018-12-20T01:30:42.732Z,1011.22
2018-12-20T01:31:42.611Z,1011.19
2018-12-20T01:32:42.770Z,1011.23
2018-12-20T01:33:42.592Z,1011.24
2018-12-20T01:34:42.850Z,1011.23
2018-12-20T01:35:42.595Z,1011.21
2018-12-20T01:36:42.589Z,1011.22
2018-12-20T01:37:42.595Z,1011.21
2018-12-20T01:38:42.573Z,1011.18
2018-12-20T01:39:42.605Z,1011.16
2018-12-20T01:40:42.699Z,1011.16
2018-12-20T01:41:42.705Z,1011.12
2018-12-20T01:42:42.512Z,1011.14
2018-12-20T01:43:42.506Z,1011.10
2018-12-20T01:44:42.510Z,1011.11
2018-12-20T01:45:42.575Z,1011.13
2018-12-20T01:46:42.556Z,1011.14
2018-12-20T01:47:42.464Z,1011.13
2018-12-20T01:48:42.651Z,1011.13
2018-12-20T01:49:42.546Z,1011.11
2018-12-20T01:50:42.587Z,1011.10
2018-12-20T01:51:42.433Z,1011.09
2018-12-20T01:52:42.420Z,1011.10
2018-12-20T01:53:42.447Z,1011.06
2018-12-20T01:54:42.454Z,1011.03
2018-12-20T01:55:42.392Z,1011.02
2018-12-20T01:56:42.384Z,1011.04
2018-12-20T01:57:42.420Z,1011.03
2018-12-20T01:58:42.366Z,1011.06
2018-12-20T01:59:42.356Z,1011.06
2018-12-20T02:00:42.479Z,1011.10
2018-12-20T02:01:42.515Z,1011.11
2018-12-20T02:02:42.339Z,1011.07
2018-12-20T02:03:42.503Z,1011.10
2018-12-20T02:04:42.311Z,1011.11
2018-12-20T02:05:42.338Z,1011.10
2018-12-20T02:06:43.254Z,1011.10
2018-12-20T02:07:42.284Z,1011.09
2018-12-20T02:08:42.276Z,1011.09
2018-12-20T02:09:42.322Z,1011.08
2018-12-20T02:10:42.257Z,1011.09
2018-12-20T02:11:42.248Z,1011.06
2018-12-20T02:12:42.281Z,1011.04
2018-12-20T02:13:42.245Z,1011.08
2018-12-20T02:14:42.251Z,1011.03
2018-12-20T02:15:42.213Z,1011.06
2018-12-20T02:16:42.204Z,1011.04
2018-12-20T02:17:42.320Z,1011.05
2018-12-20T02:18:42.205Z,1011.04
2018-12-20T02:19:42.355Z,1011.03
2018-12-20T02:20:42.325Z,1011.05
2018-12-20T02:21:42.273Z,1011.03
2018-12-20T02:22:42.341Z,1011.01
2018-12-20T02:23:42.208Z,1011.00
2018-12-20T02:24:42.205Z,1010.98
2018-12-20T02:25:42.218Z,1010.96
2018-12-20T02:26:42.140Z,1010.95
2018-12-20T02:27:42.191Z,1010.95
2018-12-20T02:28:42.248Z,1010.89
2018-12-20T02:29:42.085Z,1010.91
2018-12-20T02:30:42.094Z,1010.92
2018-12-20T02:31:42.082Z,1010.92
2018-12-20T02:32:42.059Z,1010.90
2018-12-20T02:33:42.074Z,1010.90
2018-12-20T02:34:42.263Z,1010.90
2018-12-20T02:35:42.122Z,1010.92
2018-12-20T02:36:42.181Z,1010.97
2018-12-20T02:37:42.012Z,1010.92
2018-12-20T02:38:42.003Z,1010.94
2018-12-20T02:39:42.028Z,1010.91
2018-12-20T02:40:41.988Z,1010.90
2018-12-20T02:41:42.005Z,1010.86
2018-12-20T02:42:41.992Z,1010.86
2018-12-20T02:43:41.992Z,1010.86
2018-12-20T02:44:42.154Z,1010.82
2018-12-20T02:45:41.939Z,1010.84
2018-12-20T02:46:41.945Z,1010.79
2018-12-20T02:47:42.083Z,1010.82
2018-12-20T02:48:41.975Z,1010.78
2018-12-20T02:49:41.946Z,1010.76
2018-12-20T02:50:41.924Z,1010.77
2018-12-20T02:51:42.054Z,1010.77
2018-12-20T02:52:41.930Z,1010.74
2018-12-20T02:53:41.872Z,1010.74
2018-12-20T02:54:42.160Z,1010.74
2018-12-20T02:55:41.862Z,1010.76
2018-12-20T02:56:41.997Z,1010.76
2018-12-20T02:57:42.177Z,1010.74
2018-12-20T02:58:41.957Z,1010.76
2018-12-20T02:59:41.817Z,1010.74
2018-12-20T03:00:41.807Z,1010.72
2018-12-20T03:01:41.895Z,1010.72
2018-12-20T03:02:41.878Z,1010.71
2018-12-20T03:03:41.902Z,1010.67
2018-12-20T03:04:41.802Z,1010.71
2018-12-20T03:05:42.176Z,1010.69
2018-12-20T03:06:41.770Z,1010.72
2018-12-20T03:07:41.837Z,1010.72
2018-12-20T03:08:41.933Z,1010.69
2018-12-20T03:09:41.728Z,1010.69
2018-12-20T03:10:41.742Z,1010.66
2018-12-20T03:11:41.713Z,1010.65
2018-12-20T03:12:41.702Z,1010.66
2018-12-20T03:13:41.792Z,1010.69
2018-12-20T03:14:41.819Z,1010.67
2018-12-20T03:15:41.720Z,1010.73
2018-12-20T03:16:41.667Z,1010.69
2018-12-20T03:17:41.805Z,1010.69
2018-12-20T03:18:41.663Z,1010.69
2018-12-20T03:19:41.691Z,1010.67
2018-12-20T03:20:41.650Z,1010.68
2018-12-20T03:21:41.665Z,1010.67
2018-12-20T03:22:41.739Z,1010.67
2018-12-20T03:23:41.907Z,1010.65
2018-12-20T03:24:41.620Z,1010.65
2018-12-20T03:25:41.751Z,1010.65
2018-12-20T03:26:41.572Z,1010.65
2018-12-20T03:27:41.694Z,1010.64
2018-12-20T03:28:41.706Z,1010.67
2018-12-20T03:29:41.558Z,1010.63
2018-12-20T03:30:41.540Z,1010.65
2018-12-20T03:31:41.534Z,1010.60
2018-12-20T03:32:41.533Z,1010.62
2018-12-20T03:33:41.765Z,1010.62
2018-12-20T03:34:41.598Z,1010.58
2018-12-20T03:35:41.493Z,1010.58
2018-12-20T03:36:41.582Z,1010.57
2018-12-20T03:37:41.736Z,1010.54
2018-12-20T03:38:41.544Z,1010.55
2018-12-20T03:39:41.462Z,1010.56
2018-12-20T03:40:41.698Z,1010.53
2018-12-20T03:41:41.440Z,1010.54
2018-12-20T03:42:41.504Z,1010.55
2018-12-20T03:43:41.423Z,1010.56
2018-12-20T03:44:41.708Z,1010.59
2018-12-20T03:45:41.791Z,1010.57
2018-12-20T03:46:41.398Z,1010.55
2018-12-20T03:47:41.457Z,1010.48
2018-12-20T03:48:41.439Z,1010.50
2018-12-20T03:49:41.374Z,1010.49
2018-12-20T03:50:41.473Z,1010.48
2018-12-20T03:51:41.367Z,1010.49
2018-12-20T03:52:41.467Z,1010.51
2018-12-20T03:53:41.351Z,1010.52
2018-12-20T03:54:41.421Z,1010.49
2018-12-20T03:55:41.514Z,1010.49
2018-12-20T03:56:41.430Z,1010.47
2018-12-20T03:57:41.458Z,1010.50
2018-12-20T03:58:41.286Z,1010.48
2018-12-20T03:59:41.277Z,1010.46
2018-12-20T04:00:41.268Z,1010.49
2018-12-20T04:01:41.259Z,1010.47
2018-12-20T04:02:41.254Z,1010.49
2018-12-20T04:03:41.393Z,1010.47
2018-12-20T04:04:41.242Z,1010.48
2018-12-20T04:05:41.223Z,1010.50
2018-12-20T04:06:41.248Z,1010.58
2018-12-20T04:07:41.209Z,1010.62
2018-12-20T04:08:41.197Z,1010.65
2018-12-20T04:09:41.318Z,1010.62
2018-12-20T04:10:41.230Z,1010.62
2018-12-20T04:11:41.172Z,1010.64
2018-12-20T04:12:41.158Z,1010.62
2018-12-20T04:13:41.475Z,1010.61
2018-12-20T04:14:41.292Z,1010.64
2018-12-20T04:15:41.228Z,1010.61
2018-12-20T04:16:41.126Z,1010.67
2018-12-20T04:17:41.116Z,1010.64
2018-12-20T04:18:41.168Z,1010.59
2018-12-20T04:19:41.098Z,1010.60
2018-12-20T04:20:41.091Z,1010.56
2018-12-20T04:21:41.079Z,1010.58
2018-12-20T04:22:41.072Z,1010.62
2018-12-20T04:23:41.064Z,1010.60
2018-12-20T04:24:41.195Z,1010.64
2018-12-20T04:25:41.044Z,1010.61
2018-12-20T04:26:41.088Z,1010.62
2018-12-20T04:27:41.235Z,1010.61
2018-12-20T04:28:41.016Z,1010.63
2018-12-20T04:29:41.161Z,1010.61
2018-12-20T04:30:40.999Z,1010.63
2018-12-20T04:31:40.989Z,1010.59
2018-12-20T04:32:41.120Z,1010.59
2018-12-20T04:33:41.270Z,1010.61
2018-12-20T04:34:40.983Z,1010.58
2018-12-20T04:35:41.084Z,1010.59
2018-12-20T04:36:40.948Z,1010.62
2018-12-20T04:37:40.934Z,1010.60
2018-12-20T04:38:41.115Z,1010.59
2018-12-20T04:39:41.078Z,1010.59
2018-12-20T04:40:40.987Z,1010.59
2018-12-20T04:41:40.901Z,1010.56
2018-12-20T04:42:41.169Z,1010.55
2018-12-20T04:43:40.885Z,1010.58
2018-12-20T04:44:41.020Z,1010.53
2018-12-20T04:45:46.692Z,1010.58
2018-12-20T04:46:40.936Z,1010.54
2018-12-20T04:47:40.848Z,1010.54
2018-12-20T04:48:40.838Z,1010.56
2018-12-20T04:49:41.080Z,1010.51
2018-12-20T04:50:40.836Z,1010.54
2018-12-20T04:51:40.885Z,1010.51
2018-12-20T04:52:40.799Z,1010.49
2018-12-20T04:53:40.816Z,1010.52
2018-12-20T04:54:40.783Z,1010.51
2018-12-20T04:55:40.772Z,1010.48
2018-12-20T04:56:41.079Z,1010.47
2018-12-20T04:57:41.047Z,1010.47
2018-12-20T04:58:40.776Z,1010.47
2018-12-20T04:59:40.864Z,1010.48
2018-12-20T05:00:40.863Z,1010.52
2018-12-20T05:01:40.817Z,1010.53
2018-12-20T05:02:40.748Z,1010.58
2018-12-20T05:03:40.772Z,1010.57
2018-12-20T05:04:40.699Z,1010.56
2018-12-20T05:05:40.679Z,1010.57
2018-12-20T05:06:40.672Z,1010.54
2018-12-20T05:07:40.686Z,1010.52
2018-12-20T05:08:40.716Z,1010.55
2018-12-20T05:09:40.644Z,1010.54
2018-12-20T05:10:40.634Z,1010.53
2018-12-20T05:11:40.910Z,1010.52
2018-12-20T05:12:40.619Z,1010.47
2018-12-20T05:13:40.610Z,1010.50
2018-12-20T05:14:40.799Z,1010.49
2018-12-20T05:15:40.621Z,1010.46
2018-12-20T05:16:40.615Z,1010.46
2018-12-20T05:17:40.898Z,1010.46
2018-12-20T05:18:40.662Z,1010.47
2018-12-20T05:19:40.566Z,1010.43
2018-12-20T05:20:40.719Z,1010.45
2018-12-20T05:21:40.540Z,1010.47
2018-12-20T05:22:40.726Z,1010.49
2018-12-20T05:23:40.576Z,1010.53
2018-12-20T05:24:40.604Z,1010.53
2018-12-20T05:25:40.529Z,1010.49
2018-12-20T05:26:40.513Z,1010.52
2018-12-20T05:27:40.495Z,1010.51
2018-12-20T05:28:40.473Z,1010.47
2018-12-20T05:29:40.463Z,1010.39
2018-12-20T05:30:40.719Z,1010.41
2018-12-20T05:31:40.446Z,1010.43
2018-12-20T05:32:40.621Z,1010.41
2018-12-20T05:33:40.686Z,1010.40
2018-12-20T05:34:40.420Z,1010.39
2018-12-20T05:35:40.411Z,1010.41
2018-12-20T05:36:40.400Z,1010.38
2018-12-20T05:37:40.439Z,1010.40
2018-12-20T05:38:40.614Z,1010.40
2018-12-20T05:39:40.701Z,1010.36
2018-12-20T05:40:40.394Z,1010.33
2018-12-20T05:41:40.362Z,1010.35
2018-12-20T05:42:40.347Z,1010.36
2018-12-20T05:43:40.378Z,1010.40
2018-12-20T05:44:40.404Z,1010.38
2018-12-20T05:45:40.318Z,1010.38
2018-12-20T05:46:40.548Z,1010.39
2018-12-20T05:47:40.504Z,1010.39
2018-12-20T05:48:40.293Z,1010.36
2018-12-20T05:49:40.357Z,1010.40
2018-12-20T05:50:40.371Z,1010.44
2018-12-20T05:51:40.479Z,1010.39
2018-12-20T05:52:40.257Z,1010.44
2018-12-20T05:53:40.401Z,1010.45
2018-12-20T05:54:40.268Z,1010.45
2018-12-20T05:55:40.520Z,1010.41
2018-12-20T05:56:40.289Z,1010.43
2018-12-20T05:57:40.211Z,1010.42
2018-12-20T05:58:40.212Z,1010.45
2018-12-20T05:59:40.395Z,1010.43
2018-12-20T06:00:40.278Z,1010.44
2018-12-20T06:01:40.328Z,1010.41
2018-12-20T06:02:40.179Z,1010.41
2018-12-20T06:03:40.155Z,1010.43
2018-12-20T06:04:40.147Z,1010.43
2018-12-20T06:05:40.176Z,1010.44
2018-12-20T06:06:40.373Z,1010.47
2018-12-20T06:07:40.275Z,1010.41
2018-12-20T06:08:40.113Z,1010.44
2018-12-20T06:09:40.119Z,1010.47
2018-12-20T06:10:40.270Z,1010.45
2018-12-20T06:11:40.279Z,1010.46
2018-12-20T06:12:40.119Z,1010.45
2018-12-20T06:13:40.199Z,1010.46
2018-12-20T06:14:40.253Z,1010.44
2018-12-20T06:15:40.048Z,1010.42
2018-12-20T06:16:40.040Z,1010.43
2018-12-20T06:17:40.033Z,1010.41
2018-12-20T06:18:40.020Z,1010.40
2018-12-20T06:19:40.031Z,1010.39
2018-12-20T06:20:40.017Z,1010.37
2018-12-20T06:21:39.991Z,1010.34
2018-12-20T06:22:39.982Z,1010.33
2018-12-20T06:23:39.975Z,1010.32
2018-12-20T06:24:39.964Z,1010.31
2018-12-20T06:25:39.959Z,1010.34
2018-12-20T06:26:39.949Z,1010.32
2018-12-20T06:27:39.937Z,1010.35
2018-12-20T06:28:39.929Z,1010.36
2018-12-20T06:29:39.919Z,1010.35
2018-12-20T06:30:39.912Z,1010.33
2018-12-20T06:31:39.907Z,1010.34
2018-12-20T06:32:39.894Z,1010.34
2018-12-20T06:33:39.883Z,1010.37
2018-12-20T06:34:39.875Z,1010.32
2018-12-20T06:35:39.865Z,1010.34
2018-12-20T06:36:39.856Z,1010.32
2018-12-20T06:37:39.851Z,1010.33
2018-12-20T06:38:39.838Z,1010.33
2018-12-20T06:39:39.898Z,1010.35
2018-12-20T06:40:39.824Z,1010.29
2018-12-20T06:41:39.811Z,1010.32
2018-12-20T06:42:39.804Z,1010.28
2018-12-20T06:43:39.794Z,1010.27
2018-12-20T06:44:39.784Z,1010.28
2018-12-20T06:45:39.776Z,1010.32
2018-12-20T06:46:39.767Z,1010.30
2018-12-20T06:47:39.757Z,1010.30
2018-12-20T06:48:39.745Z,1010.28
2018-12-20T06:49:39.741Z,1010.26
2018-12-20T06:50:39.731Z,1010.28
2018-12-20T06:51:39.719Z,1010.26
2018-12-20T06:52:39.716Z,1010.31
2018-12-20T06:53:39.701Z,1010.29
2018-12-20T06:54:39.690Z,1010.31
2018-12-20T06:55:39.683Z,1010.33
2018-12-20T06:56:39.673Z,1010.30
2018-12-20T06:57:39.671Z,1010.34
2018-12-20T06:58:39.656Z,1010.30
2018-12-20T06:59:39.646Z,1010.29
2018-12-20T07:00:39.639Z,1010.30
2018-12-20T07:01:39.708Z,1010.34
2018-12-20T07:02:39.620Z,1010.39
2018-12-20T07:03:39.606Z,1010.40
2018-12-20T07:04:39.597Z,1010.40
2018-12-20T07:05:39.588Z,1010.41
2018-12-20T07:06:39.579Z,1010.42
2018-12-20T07:07:39.585Z,1010.40
2018-12-20T07:08:39.562Z,1010.44
2018-12-20T07:09:39.554Z,1010.41
2018-12-20T07:10:39.546Z,1010.41
2018-12-20T07:11:39.533Z,1010.40
2018-12-20T07:12:39.526Z,1010.39
2018-12-20T07:13:39.524Z,1010.44
2018-12-20T07:14:39.510Z,1010.44
2018-12-20T07:15:39.498Z,1010.45
2018-12-20T07:16:39.490Z,1010.47
2018-12-20T07:17:39.478Z,1010.47
2018-12-20T07:18:39.469Z,1010.44
2018-12-20T07:19:39.460Z,1010.48
2018-12-20T07:20:39.454Z,1010.48
2018-12-20T07:21:39.442Z,1010.47
2018-12-20T07:22:39.430Z,1010.46
2018-12-20T07:23:39.423Z,1010.46
2018-12-20T07:24:39.415Z,1010.45
2018-12-20T07:25:39.406Z,1010.50
2018-12-20T07:26:39.395Z,1010.48
2018-12-20T07:27:39.385Z,1010.51
2018-12-20T07:28:39.379Z,1010.48
2018-12-20T07:29:39.366Z,1010.49
2018-12-20T07:30:39.357Z,1010.47
2018-12-20T07:31:39.346Z,1010.45
2018-12-20T07:32:39.349Z,1010.51
2018-12-20T07:33:39.330Z,1010.49
2018-12-20T07:34:39.319Z,1010.48
2018-12-20T07:35:39.310Z,1010.48
2018-12-20T07:36:39.301Z,1010.50
2018-12-20T07:37:39.298Z,1010.47
2018-12-20T07:38:39.284Z,1010.52
2018-12-20T07:39:39.273Z,1010.48
2018-12-20T07:40:39.265Z,1010.49
2018-12-20T07:41:42.167Z,1010.52
2018-12-20T07:53:27.762Z,1010.52
2018-12-20T07:55:33.050Z,1010.52
2018-12-20T07:56:33.031Z,1010.56
2018-12-20T07:58:26.407Z,1010.53
2018-12-20T07:59:26.393Z,1010.52
2018-12-20T08:01:19.789Z,1010.49
2018-12-20T08:02:19.760Z,1010.46
2018-12-20T08:04:12.671Z,1010.48
2018-12-20T08:05:12.630Z,1010.42
2018-12-20T08:07:06.031Z,1010.47
2018-12-20T08:08:06.014Z,1010.49
2018-12-20T08:09:59.419Z,1010.55
2018-12-20T08:10:59.385Z,1010.55
2018-12-20T08:12:52.782Z,1010.52
2018-12-20T08:13:52.836Z,1010.52
2018-12-20T08:15:46.149Z,1010.54
2018-12-20T08:16:46.372Z,1010.54
2018-12-20T08:18:39.514Z,1010.56
2018-12-20T08:19:39.481Z,1010.56
2018-12-20T08:21:32.365Z,1010.57
2018-12-20T08:22:32.360Z,1010.59
2018-12-20T08:23:32.344Z,1010.58
2018-12-20T08:24:32.329Z,1010.57
2018-12-20T08:25:32.324Z,1010.59
2018-12-20T08:26:32.317Z,1010.60
2018-12-20T08:27:32.306Z,1010.62
2018-12-20T08:28:32.301Z,1010.64
2018-12-20T08:29:32.284Z,1010.64
2018-12-20T08:30:32.279Z,1010.66
2018-12-20T08:31:32.277Z,1010.65
2018-12-20T08:32:32.262Z,1010.65
2018-12-20T08:33:32.255Z,1010.66
2018-12-20T08:34:32.245Z,1010.69
2018-12-20T08:35:32.234Z,1010.70
2018-12-20T08:36:32.227Z,1010.67
2018-12-20T08:37:32.220Z,1010.66
2018-12-20T08:38:32.211Z,1010.63
2018-12-20T08:39:32.201Z,1010.69
2018-12-20T08:40:32.187Z,1010.65
2018-12-20T08:41:32.181Z,1010.67
2018-12-20T08:42:32.172Z,1010.67
2018-12-20T08:43:32.165Z,1010.66
2018-12-20T08:44:32.150Z,1010.72
2018-12-20T08:45:32.141Z,1010.70
2018-12-20T08:46:32.138Z,1010.74
2018-12-20T08:47:32.130Z,1010.74
2018-12-20T08:48:32.118Z,1010.70
2018-12-20T08:49:32.111Z,1010.73
2018-12-20T08:50:32.100Z,1010.72
2018-12-20T08:51:32.093Z,1010.68
2018-12-20T08:52:32.082Z,1010.73
2018-12-20T08:53:32.075Z,1010.75
2018-12-20T08:54:32.066Z,1010.71
2018-12-20T08:55:32.061Z,1010.74
2018-12-20T08:56:32.044Z,1010.76
2018-12-20T08:57:32.037Z,1010.73
2018-12-20T08:58:32.031Z,1010.72
2018-12-20T08:59:32.022Z,1010.75
2018-12-20T09:00:32.013Z,1010.76
2018-12-20T09:01:32.001Z,1010.76
2018-12-20T09:02:31.993Z,1010.78
2018-12-20T09:03:32.060Z,1010.80
2018-12-20T09:04:31.979Z,1010.77
2018-12-20T09:05:31.968Z,1010.78
2018-12-20T09:06:31.956Z,1010.78
2018-12-20T09:07:31.946Z,1010.74
2018-12-20T09:08:31.951Z,1010.79
2018-12-20T09:09:31.943Z,1010.78
2018-12-20T09:10:31.924Z,1010.82
2018-12-20T09:11:31.915Z,1010.82
2018-12-20T09:12:31.903Z,1010.78
2018-12-20T09:13:31.899Z,1010.79
2018-12-20T09:14:31.891Z,1010.82
2018-12-20T09:15:31.878Z,1010.86
2018-12-20T09:16:31.873Z,1010.86
2018-12-20T09:17:31.859Z,1010.88
2018-12-20T09:18:31.854Z,1010.85
2018-12-20T09:19:31.844Z,1010.89
2018-12-20T09:20:32.838Z,1010.89
2018-12-20T09:21:31.834Z,1010.93
2018-12-20T09:22:31.817Z,1010.88
2018-12-20T09:23:31.806Z,1010.87
2018-12-20T09:24:31.800Z,1010.87
2018-12-20T09:25:31.793Z,1010.89
2018-12-20T09:26:31.781Z,1010.89
2018-12-20T09:27:31.773Z,1010.92
2018-12-20T09:28:31.766Z,1010.91
2018-12-20T09:29:31.759Z,1010.88
2018-12-20T09:30:31.744Z,1010.90
2018-12-20T09:31:31.741Z,1010.90
2018-12-20T09:32:31.728Z,1010.92
2018-12-20T09:33:31.721Z,1010.91
2018-12-20T09:34:31.717Z,1010.94
2018-12-20T09:35:31.704Z,1010.92
2018-12-20T09:36:31.697Z,1010.92
2018-12-20T09:37:31.688Z,1010.93
2018-12-20T09:38:31.679Z,1010.92
2018-12-20T09:39:31.669Z,1010.93
2018-12-20T09:40:31.675Z,1010.93
2018-12-20T09:41:31.654Z,1010.93
2018-12-20T09:42:31.642Z,1010.95
2018-12-20T09:43:31.635Z,1010.91
2018-12-20T09:44:31.626Z,1010.90
2018-12-20T09:45:31.622Z,1010.91
2018-12-20T09:46:32.351Z,1010.92
2018-12-20T09:47:31.606Z,1010.94
2018-12-20T09:48:31.624Z,1010.92
2018-12-20T09:49:31.588Z,1010.93
2018-12-20T09:50:31.583Z,1010.92
2018-12-20T09:51:31.567Z,1010.88
2018-12-20T09:52:31.562Z,1010.86
2018-12-20T09:53:31.555Z,1010.80
2018-12-20T09:54:31.539Z,1010.81
2018-12-20T09:55:31.545Z,1010.85
2018-12-20T09:56:31.531Z,1010.83
2018-12-20T09:57:33.311Z,1010.83
2018-12-20T09:58:31.509Z,1010.80
2018-12-20T09:59:31.503Z,1010.83
2018-12-20T10:00:31.493Z,1010.79
2018-12-20T10:01:31.486Z,1010.81
2018-12-20T10:02:31.478Z,1010.74
2018-12-20T10:03:31.463Z,1010.78
2018-12-20T10:04:31.460Z,1010.78
2018-12-20T10:05:31.451Z,1010.73
2018-12-20T10:06:31.442Z,1010.72
2018-12-20T10:07:31.433Z,1010.69
2018-12-20T10:08:31.425Z,1010.69
2018-12-20T10:09:31.666Z,1010.65
2018-12-20T10:10:31.410Z,1010.58
2018-12-20T10:11:31.398Z,1010.59
2018-12-20T10:12:31.392Z,1010.59
2018-12-20T10:13:31.384Z,1010.61
2018-12-20T10:14:31.381Z,1010.63
2018-12-20T10:15:31.368Z,1010.64
2018-12-20T10:16:31.361Z,1010.60
2018-12-20T10:17:31.355Z,1010.58
2018-12-20T10:18:31.342Z,1010.56
2018-12-20T10:19:31.337Z,1010.57
2018-12-20T10:20:31.325Z,1010.54
2018-12-20T10:21:31.318Z,1010.52
2018-12-20T10:22:31.421Z,1010.53
2018-12-20T10:23:31.301Z,1010.51
2018-12-20T10:24:31.290Z,1010.49
2018-12-20T10:25:31.288Z,1010.50
2018-12-20T10:26:31.275Z,1010.50
2018-12-20T10:27:31.775Z,1010.46
2018-12-20T10:28:31.260Z,1010.47
2018-12-20T10:29:31.253Z,1010.47
2018-12-20T10:30:31.244Z,1010.44
2018-12-20T10:31:31.234Z,1010.46
2018-12-20T10:32:31.237Z,1010.46
2018-12-20T10:33:31.218Z,1010.42
2018-12-20T10:34:31.213Z,1010.42
2018-12-20T10:35:31.200Z,1010.39
2018-12-20T10:36:31.196Z,1010.40
2018-12-20T10:37:31.185Z,1010.42
2018-12-20T10:38:31.177Z,1010.42
2018-12-20T10:39:31.166Z,1010.38
2018-12-20T10:40:31.161Z,1010.38
2018-12-20T10:41:31.152Z,1010.38
2018-12-20T10:42:31.145Z,1010.31
2018-12-20T10:43:31.138Z,1010.27
2018-12-20T10:44:31.129Z,1010.24
2018-12-20T10:45:31.124Z,1010.28
2018-12-20T10:46:31.114Z,1010.22
2018-12-20T10:47:31.107Z,1010.22
2018-12-20T10:48:31.099Z,1010.20
2018-12-20T10:49:31.087Z,1010.21
2018-12-20T10:50:31.087Z,1010.17
2018-12-20T10:51:31.071Z,1010.18
2018-12-20T10:52:31.067Z,1010.11
2018-12-20T10:53:31.056Z,1010.15
2018-12-20T10:54:31.048Z,1010.10
2018-12-20T10:55:31.040Z,1010.11
2018-12-20T10:56:31.031Z,1010.07
2018-12-20T10:57:31.031Z,1010.02
2018-12-20T10:58:31.015Z,1010.02
2018-12-20T10:59:31.010Z,1010.03
2018-12-20T11:00:30.997Z,1010.04
2018-12-20T11:01:30.993Z,1010.00
2018-12-20T11:02:30.983Z,1009.97
2018-12-20T11:03:30.975Z,1009.99
2018-12-20T11:04:30.969Z,1009.99
2018-12-20T11:05:30.955Z,1009.96
2018-12-20T11:06:30.953Z,1009.95
2018-12-20T11:07:30.943Z,1009.96
2018-12-20T11:08:30.934Z,1009.95
2018-12-20T11:09:30.928Z,1009.95
2018-12-20T11:10:30.918Z,1009.94
2018-12-20T11:11:30.910Z,1009.94
2018-12-20T11:12:30.903Z,1009.92
2018-12-20T11:13:30.895Z,1009.89
2018-12-20T11:14:30.888Z,1009.86
2018-12-20T11:15:30.887Z,1009.86
2018-12-20T11:16:30.869Z,1009.81
2018-12-20T11:17:37.336Z,1009.80
2018-12-20T11:18:30.856Z,1009.82
2018-12-20T11:19:30.846Z,1009.79
2018-12-20T11:20:30.841Z,1009.80
2018-12-20T11:21:30.833Z,1009.82
2018-12-20T11:22:30.825Z,1009.81
2018-12-20T11:23:30.817Z,1009.81
2018-12-20T11:24:30.810Z,1009.79
2018-12-20T11:25:30.800Z,1009.77
2018-12-20T11:26:30.797Z,1009.77
2018-12-20T11:27:30.784Z,1009.76
2018-12-20T11:28:30.776Z,1009.71
2018-12-20T11:29:30.769Z,1009.69
2018-12-20T11:30:30.763Z,1009.66
2018-12-20T11:31:30.754Z,1009.63
2018-12-20T11:32:30.748Z,1009.64
2018-12-20T11:33:30.739Z,1009.63
2018-12-20T11:34:30.732Z,1009.66
2018-12-20T11:35:30.723Z,1009.65
2018-12-20T11:36:30.716Z,1009.66
2018-12-20T11:37:30.752Z,1009.63
2018-12-20T11:38:30.787Z,1009.59
2018-12-20T11:39:30.693Z,1009.61
2018-12-20T11:40:30.682Z,1009.62
2018-12-20T11:41:30.677Z,1009.61
2018-12-20T11:42:30.669Z,1009.64
2018-12-20T11:43:30.660Z,1009.65
2018-12-20T11:44:30.653Z,1009.68
2018-12-20T11:45:30.647Z,1009.69
2018-12-20T11:46:30.636Z,1009.72
2018-12-20T11:47:30.628Z,1009.72
2018-12-20T11:48:30.632Z,1009.76
2018-12-20T11:49:30.613Z,1009.72
2018-12-20T11:50:30.605Z,1009.71
2018-12-20T11:51:30.604Z,1009.72
2018-12-20T11:52:30.591Z,1009.68
2018-12-20T11:53:30.582Z,1009.68
2018-12-20T11:54:30.578Z,1009.65
2018-12-20T11:55:30.563Z,1009.64
2018-12-20T11:56:30.559Z,1009.67
2018-12-20T11:57:30.552Z,1009.66
2018-12-20T11:58:30.542Z,1009.63
2018-12-20T11:59:30.536Z,1009.65
2018-12-20T12:00:30.529Z,1009.63
2018-12-20T12:01:30.520Z,1009.62
2018-12-20T12:02:30.515Z,1009.63
2018-12-20T12:03:30.505Z,1009.56
2018-12-20T12:04:30.498Z,1009.58
2018-12-20T12:05:30.491Z,1009.52
2018-12-20T12:06:30.486Z,1009.54
2018-12-20T12:07:30.474Z,1009.58
2018-12-20T12:08:30.467Z,1009.60
2018-12-20T12:09:30.458Z,1009.59
2018-12-20T12:10:30.451Z,1009.60
2018-12-20T12:11:30.446Z,1009.61
2018-12-20T12:12:30.433Z,1009.63
2018-12-20T12:13:30.426Z,1009.64
2018-12-20T12:14:30.419Z,1009.62
2018-12-20T12:15:30.414Z,1009.61
2018-12-20T12:16:30.401Z,1009.61
2018-12-20T12:17:30.397Z,1009.60
2018-12-20T12:18:30.386Z,1009.57
2018-12-20T12:19:30.377Z,1009.56
2018-12-20T12:20:30.372Z,1009.56
2018-12-20T12:21:30.364Z,1009.53
2018-12-20T12:22:30.356Z,1009.52
2018-12-20T12:23:30.347Z,1009.50
2018-12-20T12:24:30.343Z,1009.56
2018-12-20T12:25:30.330Z,1009.57